Stratham, NH (03885)

2:43 AM EDT on May 26, 2015 (GMT -0400)
Exeter Farms | | Change Station
CLOSE
Current Station
Personal Weather Station
Location: Exeter, NH
Elevation: 102 ft
Nearby Weather Stations

Elev 102 ft 42.97 °N, 70.90 °W | Updated 2 seconds ago

Rain
Rain
68.5 °F
Feels Like 68.5 °F
N
1.0
Wind Variable Wind from WSW
Gusts 3.0 mph

Today
High -- | Low -- °F
--% Chance of Precip.
Yesterday
High -- | Low -- °F
Precip. -- in
5:10 AM 8:10 PM
First Quarter, 55% visible
Pressure 30.09 in
Visibility 10.0 miles
Clouds Overcast 10000 ft
Dew Point 60 °F
Humidity 73%
Rainfall 0.00 in
Snow Depth Not available.
UV 0 out of 12
Pollen 8.80 out of 12
Air Quality Not available.
Flu Activity Sporadic
METAR KPSM 260558Z 21006KT 10SM -RA OVC100 21/15 A3008 RMK AO2A SLP189 P0000 60000 T02050146 10220 20193 57006

More Conditions Fewer Conditions

Pressure 30.09 in
Visibility 10.0 miles
Clouds Overcast 10000 ft
Dew Point 60 °F
Humidity 73%
Rainfall 0.00 in
Snow Depth Not available.
UV 0 out of 12
Pollen 8.80 out of 12
Air Quality Not available.
Flu Activity Sporadic
METAR KPSM 260558Z 21006KT 10SM -RA OVC100 21/15 A3008 RMK AO2A SLP189 P0000 60000 T02050146 10220 20193 57006

More Conditions Fewer Conditions

10-Day Weather Forecast

Almanac

Astronomy

May. 26, 2015 Rise Set
Actual Time
Civil Twilight
Nautical Twilight
Astronomical Twilight
Moon
Length of Visible Light
Length of Day
Tomorrow will be .
, % of the Moon is Illuminated

Today's Extremes

State Highs State Lows

Community

WunderPhotos

Upload Photos

1,824,294 photos uploaded!

WunderBlogs® & News

Nearby

Air Quality

  Air Quality AQ Index Pollutant
Not available.

Snow Depth

Station Depth Elevation

Earthquake Activity

City Distance Mag. Time & Date
Minimum magnitude displayed is 2.5.

Coastal Water Temperatures

Place Temperature

Stations

Nearby Weather Stations

Station Location Temp. Windchill Dew Point Humidity Wind Precip. Elev Updated Type